sensor_id;sensor_type;location;lat;lon;timestamp;P1;durP1;ratioP1;P2;durP2;ratioP2
58468;SDS011;44257;44.804;10.220;2022-08-19T00:01:39;4.32;;;3.05;;
58468;SDS011;44257;44.804;10.220;2022-08-19T00:04:08;4.18;;;3.25;;
58468;SDS011;44257;44.804;10.220;2022-08-19T00:06:38;3.47;;;2.83;;
58468;SDS011;44257;44.804;10.220;2022-08-19T00:09:06;8.18;;;4.05;;
58468;SDS011;44257;44.804;10.220;2022-08-19T00:11:35;7.30;;;3.70;;
58468;SDS011;44257;44.804;10.220;2022-08-19T00:14:03;5.30;;;2.90;;
58468;SDS011;44257;44.804;10.220;2022-08-19T00:16:30;4.70;;;2.80;;
58468;SDS011;44257;44.804;10.220;2022-08-19T00:18:56;4.50;;;3.03;;
58468;SDS011;44257;44.804;10.220;2022-08-19T00:21:25;3.50;;;2.88;;
58468;SDS011;44257;44.804;10.220;2022-08-19T00:23:55;6.60;;;2.58;;
58468;SDS011;44257;44.804;10.220;2022-08-19T00:26:23;4.55;;;2.83;;
58468;SDS011;44257;44.804;10.220;2022-08-19T00:28:50;4.22;;;3.25;;
58468;SDS011;44257;44.804;10.220;2022-08-19T00:31:16;3.65;;;3.35;;
58468;SDS011;44257;44.804;10.220;2022-08-19T00:33:43;4.20;;;2.70;;
58468;SDS011;44257;44.804;10.220;2022-08-19T00:36:09;3.83;;;2.97;;
58468;SDS011;44257;44.804;10.220;2022-08-19T00:38:37;6.68;;;3.25;;
58468;SDS011;44257;44.804;10.220;2022-08-19T00:41:07;3.05;;;2.45;;
58468;SDS011;44257;44.804;10.220;2022-08-19T00:43:34;3.53;;;3.22;;
58468;SDS011;44257;44.804;10.220;2022-08-19T00:46:00;4.75;;;3.45;;
58468;SDS011;44257;44.804;10.220;2022-08-19T00:48:30;4.50;;;2.92;;
58468;SDS011;44257;44.804;10.220;2022-08-19T00:50:58;5.10;;;3.08;;
58468;SDS011;44257;44.804;10.220;2022-08-19T00:53:26;5.47;;;3.22;;
58468;SDS011;44257;44.804;10.220;2022-08-19T00:55:55;4.45;;;2.75;;
58468;SDS011;44257;44.804;10.220;2022-08-19T00:58:28;4.53;;;3.47;;
58468;SDS011;44257;44.804;10.220;2022-08-19T01:00:57;8.40;;;3.80;;
58468;SDS011;44257;44.804;10.220;2022-08-19T01:03:23;6.07;;;4.25;;
58468;SDS011;44257;44.804;10.220;2022-08-19T01:05:50;4.45;;;3.05;;
58468;SDS011;44257;44.804;10.220;2022-08-19T01:08:19;7.50;;;4.07;;
58468;SDS011;44257;44.804;10.220;2022-08-19T01:10:49;6.38;;;3.65;;
58468;SDS011;44257;44.804;10.220;2022-08-19T01:13:20;4.47;;;3.90;;
58468;SDS011;44257;44.804;10.220;2022-08-19T01:15:52;6.43;;;4.03;;
58468;SDS011;44257;44.804;10.220;2022-08-19T01:18:21;5.70;;;3.42;;
58468;SDS011;44257;44.804;10.220;2022-08-19T01:21:02;6.88;;;5.25;;
58468;SDS011;44257;44.804;10.220;2022-08-19T01:23:32;10.05;;;6.28;;
58468;SDS011;44257;44.804;10.220;2022-08-19T01:26:15;5.72;;;2.67;;
58468;SDS011;44257;44.804;10.220;2022-08-19T01:28:47;4.90;;;4.00;;
58468;SDS011;44257;44.804;10.220;2022-08-19T01:31:17;6.03;;;4.20;;
58468;SDS011;44257;44.804;10.220;2022-08-19T01:33:49;8.30;;;3.67;;
58468;SDS011;44257;44.804;10.220;2022-08-19T01:36:22;5.82;;;5.22;;
58468;SDS011;44257;44.804;10.220;2022-08-19T01:38:51;10.18;;;4.10;;
58468;SDS011;44257;44.804;10.220;2022-08-19T01:41:17;6.20;;;4.45;;
58468;SDS011;44257;44.804;10.220;2022-08-19T01:43:43;6.97;;;4.35;;
58468;SDS011;44257;44.804;10.220;2022-08-19T01:46:11;8.50;;;4.18;;
58468;SDS011;44257;44.804;10.220;2022-08-19T01:48:38;7.78;;;4.70;;
58468;SDS011;44257;44.804;10.220;2022-08-19T01:51:07;8.73;;;5.70;;
58468;SDS011;44257;44.804;10.220;2022-08-19T05:20:49;0.13;;;0.10;;
58468;SDS011;44257;44.804;10.220;2022-08-19T05:23:36;0.55;;;0.30;;
58468;SDS011;44257;44.804;10.220;2022-08-19T05:26:01;0.38;;;0.25;;
58468;SDS011;44257;44.804;10.220;2022-08-19T05:28:28;0.17;;;0.15;;
58468;SDS011;44257;44.804;10.220;2022-08-19T05:30:53;0.28;;;0.15;;
58468;SDS011;44257;44.804;10.220;2022-08-19T05:33:20;0.00;;;0.00;;
58468;SDS011;44257;44.804;10.220;2022-08-19T05:35:49;0.73;;;0.50;;
58468;SDS011;44257;44.804;10.220;2022-08-19T05:38:16;0.35;;;0.10;;
58468;SDS011;44257;44.804;10.220;2022-08-19T05:40:42;0.38;;;0.32;;
58468;SDS011;44257;44.804;10.220;2022-08-19T05:43:14;0.10;;;0.10;;
58468;SDS011;44257;44.804;10.220;2022-08-19T05:45:41;1.67;;;0.90;;
58468;SDS011;44257;44.804;10.220;2022-08-19T05:48:10;0.10;;;0.05;;
58468;SDS011;44257;44.804;10.220;2022-08-19T05:50:37;4.15;;;0.63;;
58468;SDS011;44257;44.804;10.220;2022-08-19T05:53:04;0.00;;;0.00;;
58468;SDS011;44257;44.804;10.220;2022-08-19T05:55:30;0.10;;;0.10;;
58468;SDS011;44257;44.804;10.220;2022-08-19T05:57:57;0.17;;;0.17;;
58468;SDS011;44257;44.804;10.220;2022-08-19T06:00:23;0.30;;;0.20;;
58468;SDS011;44257;44.804;10.220;2022-08-19T06:02:49;0.00;;;0.00;;
58468;SDS011;44257;44.804;10.220;2022-08-19T06:05:16;0.38;;;0.20;;
58468;SDS011;44257;44.804;10.220;2022-08-19T06:07:42;1.38;;;0.98;;
58468;SDS011;44257;44.804;10.220;2022-08-19T06:10:08;0.00;;;0.00;;
58468;SDS011;44257;44.804;10.220;2022-08-19T06:12:36;1.23;;;0.47;;
58468;SDS011;44257;44.804;10.220;2022-08-19T06:15:05;0.10;;;0.10;;
58468;SDS011;44257;44.804;10.220;2022-08-19T06:17:36;0.47;;;0.30;;
58468;SDS011;44257;44.804;10.220;2022-08-19T06:20:03;0.20;;;0.15;;
58468;SDS011;44257;44.804;10.220;2022-08-19T06:22:35;0.00;;;0.00;;
58468;SDS011;44257;44.804;10.220;2022-08-19T06:25:03;1.13;;;0.50;;
58468;SDS011;44257;44.804;10.220;2022-08-19T06:27:30;1.02;;;0.45;;
58468;SDS011;44257;44.804;10.220;2022-08-19T06:29:57;0.43;;;0.17;;
58468;SDS011;44257;44.804;10.220;2022-08-19T06:32:24;1.00;;;0.52;;
58468;SDS011;44257;44.804;10.220;2022-08-19T06:34:50;1.02;;;0.90;;
58468;SDS011;44257;44.804;10.220;2022-08-19T06:37:16;0.10;;;0.10;;
58468;SDS011;44257;44.804;10.220;2022-08-19T06:39:43;0.35;;;0.13;;
58468;SDS011;44257;44.804;10.220;2022-08-19T06:42:11;0.80;;;0.52;;
58468;SDS011;44257;44.804;10.220;2022-08-19T06:44:39;0.80;;;0.57;;
58468;SDS011;44257;44.804;10.220;2022-08-19T06:47:08;1.50;;;0.47;;
58468;SDS011;44257;44.804;10.220;2022-08-19T06:49:35;0.15;;;0.10;;
58468;SDS011;44257;44.804;10.220;2022-08-19T06:52:03;1.65;;;0.95;;
58468;SDS011;44257;44.804;10.220;2022-08-19T06:54:31;0.20;;;0.10;;
58468;SDS011;44257;44.804;10.220;2022-08-19T06:56:58;0.15;;;0.15;;
58468;SDS011;44257;44.804;10.220;2022-08-19T06:59:27;0.32;;;0.22;;
58468;SDS011;44257;44.804;10.220;2022-08-19T07:01:59;1.33;;;0.88;;
58468;SDS011;44257;44.804;10.220;2022-08-19T07:04:30;0.25;;;0.22;;
58468;SDS011;44257;44.804;10.220;2022-08-19T07:07:05;0.20;;;0.20;;
58468;SDS011;44257;44.804;10.220;2022-08-19T07:09:36;0.28;;;0.10;;
58468;SDS011;44257;44.804;10.220;2022-08-19T07:12:04;0.28;;;0.25;;
58468;SDS011;44257;44.804;10.220;2022-08-19T07:14:32;1.75;;;0.85;;
58468;SDS011;44257;44.804;10.220;2022-08-19T07:17:03;0.32;;;0.30;;
58468;SDS011;44257;44.804;10.220;2022-08-19T07:19:31;0.50;;;0.30;;
58468;SDS011;44257;44.804;10.220;2022-08-19T07:22:03;3.78;;;0.30;;
58468;SDS011;44257;44.804;10.220;2022-08-19T07:24:30;3.00;;;0.57;;
58468;SDS011;44257;44.804;10.220;2022-08-19T07:26:58;0.00;;;0.00;;
58468;SDS011;44257;44.804;10.220;2022-08-19T07:29:27;1.73;;;0.30;;
58468;SDS011;44257;44.804;10.220;2022-08-19T07:31:55;0.30;;;0.17;;
58468;SDS011;44257;44.804;10.220;2022-08-19T07:34:26;0.75;;;0.30;;
58468;SDS011;44257;44.804;10.220;2022-08-19T07:36:53;0.30;;;0.15;;
58468;SDS011;44257;44.804;10.220;2022-08-19T07:39:22;0.10;;;0.10;;
58468;SDS011;44257;44.804;10.220;2022-08-19T07:41:51;0.40;;;0.28;;
58468;SDS011;44257;44.804;10.220;2022-08-19T07:44:17;0.85;;;0.55;;
58468;SDS011;44257;44.804;10.220;2022-08-19T07:46:48;0.93;;;0.40;;
58468;SDS011;44257;44.804;10.220;2022-08-19T07:49:18;0.47;;;0.33;;
58468;SDS011;44257;44.804;10.220;2022-08-19T07:51:49;0.00;;;0.00;;
58468;SDS011;44257;44.804;10.220;2022-08-19T07:54:19;2.13;;;1.08;;
58468;SDS011;44257;44.804;10.220;2022-08-19T07:56:45;0.55;;;0.38;;
58468;SDS011;44257;44.804;10.220;2022-08-19T07:59:12;0.13;;;0.13;;
58468;SDS011;44257;44.804;10.220;2022-08-19T08:01:38;1.45;;;0.30;;
58468;SDS011;44257;44.804;10.220;2022-08-19T08:04:06;0.13;;;0.10;;
58468;SDS011;44257;44.804;10.220;2022-08-19T08:06:52;0.13;;;0.10;;
58468;SDS011;44257;44.804;10.220;2022-08-19T08:09:38;1.10;;;0.30;;
58468;SDS011;44257;44.804;10.220;2022-08-19T08:12:13;0.28;;;0.08;;
58468;SDS011;44257;44.804;10.220;2022-08-19T08:17:14;0.25;;;0.20;;
58468;SDS011;44257;44.804;10.220;2022-08-19T08:19:42;0.10;;;0.10;;
58468;SDS011;44257;44.804;10.220;2022-08-19T08:22:10;3.20;;;1.10;;
58468;SDS011;44257;44.804;10.220;2022-08-19T08:25:33;0.10;;;0.10;;
58468;SDS011;44257;44.804;10.220;2022-08-19T08:27:51;1.90;;;0.55;;
58468;SDS011;44257;44.804;10.220;2022-08-19T08:30:22;0.28;;;0.25;;
58468;SDS011;44257;44.804;10.220;2022-08-19T08:32:49;0.10;;;0.03;;
58468;SDS011;44257;44.804;10.220;2022-08-19T08:35:17;0.28;;;0.13;;
58468;SDS011;44257;44.804;10.220;2022-08-19T08:37:46;0.40;;;0.20;;
58468;SDS011;44257;44.804;10.220;2022-08-19T08:42:53;2.13;;;0.28;;
58468;SDS011;44257;44.804;10.220;2022-08-19T08:45:26;0.73;;;0.40;;
58468;SDS011;44257;44.804;10.220;2022-08-19T08:47:53;0.50;;;0.50;;
58468;SDS011;44257;44.804;10.220;2022-08-19T08:50:37;0.95;;;0.43;;
58468;SDS011;44257;44.804;10.220;2022-08-19T08:53:07;1.10;;;0.55;;
58468;SDS011;44257;44.804;10.220;2022-08-19T08:55:35;0.55;;;0.20;;
58468;SDS011;44257;44.804;10.220;2022-08-19T08:58:45;0.85;;;0.47;;
58468;SDS011;44257;44.804;10.220;2022-08-19T09:00:55;0.75;;;0.50;;
58468;SDS011;44257;44.804;10.220;2022-08-19T09:03:24;1.30;;;0.65;;
58468;SDS011;44257;44.804;10.220;2022-08-19T09:17:26;0.57;;;0.10;;
58468;SDS011;44257;44.804;10.220;2022-08-19T09:22:35;0.00;;;0.00;;
58468;SDS011;44257;44.804;10.220;2022-08-19T09:25:03;0.00;;;0.00;;
58468;SDS011;44257;44.804;10.220;2022-08-19T09:27:30;0.00;;;0.00;;
58468;SDS011;44257;44.804;10.220;2022-08-19T09:29:57;0.20;;;0.10;;
58468;SDS011;44257;44.804;10.220;2022-08-19T09:32:23;0.20;;;0.10;;
58468;SDS011;44257;44.804;10.220;2022-08-19T09:34:51;0.47;;;0.10;;
58468;SDS011;44257;44.804;10.220;2022-08-19T09:37:20;0.00;;;0.00;;
58468;SDS011;44257;44.804;10.220;2022-08-19T09:39:47;0.00;;;0.00;;
58468;SDS011;44257;44.804;10.220;2022-08-19T09:42:13;0.00;;;0.00;;
58468;SDS011;44257;44.804;10.220;2022-08-19T09:44:39;0.20;;;0.15;;
58468;SDS011;44257;44.804;10.220;2022-08-19T09:47:07;0.90;;;0.52;;
58468;SDS011;44257;44.804;10.220;2022-08-19T09:49:34;0.00;;;0.00;;
58468;SDS011;44257;44.804;10.220;2022-08-19T09:52:00;0.38;;;0.20;;
58468;SDS011;44257;44.804;10.220;2022-08-19T09:54:27;0.88;;;0.30;;
58468;SDS011;44257;44.804;10.220;2022-08-19T09:56:53;0.00;;;0.00;;
58468;SDS011;44257;44.804;10.220;2022-08-19T09:59:20;0.00;;;0.00;;
58468;SDS011;44257;44.804;10.220;2022-08-19T10:01:46;0.20;;;0.20;;
58468;SDS011;44257;44.804;10.220;2022-08-19T10:04:12;0.10;;;0.08;;
58468;SDS011;44257;44.804;10.220;2022-08-19T10:06:38;0.08;;;0.05;;
58468;SDS011;44257;44.804;10.220;2022-08-19T10:09:08;4.90;;;0.22;;
58468;SDS011;44257;44.804;10.220;2022-08-19T10:11:38;0.20;;;0.20;;
58468;SDS011;44257;44.804;10.220;2022-08-19T10:14:06;0.77;;;0.47;;
58468;SDS011;44257;44.804;10.220;2022-08-19T10:16:33;0.43;;;0.30;;
58468;SDS011;44257;44.804;10.220;2022-08-19T10:19:01;0.25;;;0.17;;
58468;SDS011;44257;44.804;10.220;2022-08-19T10:21:31;0.55;;;0.17;;
58468;SDS011;44257;44.804;10.220;2022-08-19T10:24:00;0.10;;;0.10;;
58468;SDS011;44257;44.804;10.220;2022-08-19T10:26:30;0.57;;;0.10;;
58468;SDS011;44257;44.804;10.220;2022-08-19T10:29:01;0.00;;;0.00;;
58468;SDS011;44257;44.804;10.220;2022-08-19T10:31:30;1.17;;;0.22;;
58468;SDS011;44257;44.804;10.220;2022-08-19T10:33:58;0.00;;;0.00;;
58468;SDS011;44257;44.804;10.220;2022-08-19T10:36:33;0.10;;;0.10;;
58468;SDS011;44257;44.804;10.220;2022-08-19T10:39:01;0.00;;;0.00;;
58468;SDS011;44257;44.804;10.220;2022-08-19T10:41:32;0.77;;;0.47;;
58468;SDS011;44257;44.804;10.220;2022-08-19T10:44:01;0.00;;;0.00;;
58468;SDS011;44257;44.804;10.220;2022-08-19T10:46:33;0.28;;;0.10;;
58468;SDS011;44257;44.804;10.220;2022-08-19T10:49:01;0.50;;;0.35;;
58468;SDS011;44257;44.804;10.220;2022-08-19T10:51:28;0.57;;;0.25;;
58468;SDS011;44257;44.804;10.220;2022-08-19T10:54:13;0.88;;;0.30;;
58468;SDS011;44257;44.804;10.220;2022-08-19T10:56:39;0.20;;;0.10;;
58468;SDS011;44257;44.804;10.220;2022-08-19T11:01:50;3.22;;;0.63;;
58468;SDS011;44257;44.804;10.220;2022-08-19T11:04:17;0.28;;;0.20;;
58468;SDS011;44257;44.804;10.220;2022-08-19T11:06:45;0.38;;;0.20;;
58468;SDS011;44257;44.804;10.220;2022-08-19T11:09:14;0.20;;;0.13;;
58468;SDS011;44257;44.804;10.220;2022-08-19T11:11:46;0.65;;;0.25;;
58468;SDS011;44257;44.804;10.220;2022-08-19T11:14:14;1.08;;;0.52;;
58468;SDS011;44257;44.804;10.220;2022-08-19T11:16:45;0.60;;;0.30;;
58468;SDS011;44257;44.804;10.220;2022-08-19T11:19:12;0.05;;;0.05;;
58468;SDS011;44257;44.804;10.220;2022-08-19T11:21:42;0.10;;;0.10;;
58468;SDS011;44257;44.804;10.220;2022-08-19T11:24:10;1.15;;;0.63;;
58468;SDS011;44257;44.804;10.220;2022-08-19T11:26:38;0.20;;;0.13;;
58468;SDS011;44257;44.804;10.220;2022-08-19T11:29:07;0.30;;;0.20;;
58468;SDS011;44257;44.804;10.220;2022-08-19T11:31:38;0.10;;;0.10;;
58468;SDS011;44257;44.804;10.220;2022-08-19T11:34:09;0.10;;;0.10;;
58468;SDS011;44257;44.804;10.220;2022-08-19T11:36:39;0.15;;;0.10;;
58468;SDS011;44257;44.804;10.220;2022-08-19T11:39:09;0.13;;;0.13;;
58468;SDS011;44257;44.804;10.220;2022-08-19T11:41:35;0.25;;;0.20;;
58468;SDS011;44257;44.804;10.220;2022-08-19T11:44:03;0.00;;;0.00;;
58468;SDS011;44257;44.804;10.220;2022-08-19T11:46:30;0.10;;;0.00;;
58468;SDS011;44257;44.804;10.220;2022-08-19T11:48:57;0.40;;;0.38;;
58468;SDS011;44257;44.804;10.220;2022-08-19T11:51:24;0.00;;;0.00;;
58468;SDS011;44257;44.804;10.220;2022-08-19T11:53:52;0.17;;;0.13;;
58468;SDS011;44257;44.804;10.220;2022-08-19T11:56:18;0.57;;;0.20;;
58468;SDS011;44257;44.804;10.220;2022-08-19T11:58:45;0.85;;;0.32;;
58468;SDS011;44257;44.804;10.220;2022-08-19T12:01:12;0.00;;;0.00;;
58468;SDS011;44257;44.804;10.220;2022-08-19T12:03:41;0.85;;;0.13;;
58468;SDS011;44257;44.804;10.220;2022-08-19T12:06:10;1.85;;;0.90;;
58468;SDS011;44257;44.804;10.220;2022-08-19T12:08:38;1.38;;;0.43;;
58468;SDS011;44257;44.804;10.220;2022-08-19T12:11:05;0.20;;;0.10;;
58468;SDS011;44257;44.804;10.220;2022-08-19T12:13:33;0.13;;;0.13;;
58468;SDS011;44257;44.804;10.220;2022-08-19T12:16:06;0.25;;;0.20;;
58468;SDS011;44257;44.804;10.220;2022-08-19T12:18:36;0.65;;;0.00;;
58468;SDS011;44257;44.804;10.220;2022-08-19T12:21:02;0.85;;;0.30;;
58468;SDS011;44257;44.804;10.220;2022-08-19T12:23:30;1.25;;;0.15;;
58468;SDS011;44257;44.804;10.220;2022-08-19T12:25:56;0.15;;;0.15;;
58468;SDS011;44257;44.804;10.220;2022-08-19T12:28:23;1.10;;;0.20;;
58468;SDS011;44257;44.804;10.220;2022-08-19T12:30:50;0.25;;;0.15;;
58468;SDS011;44257;44.804;10.220;2022-08-19T12:33:17;0.17;;;0.10;;
58468;SDS011;44257;44.804;10.220;2022-08-19T12:35:44;0.40;;;0.30;;
58468;SDS011;44257;44.804;10.220;2022-08-19T12:38:14;0.10;;;0.10;;
58468;SDS011;44257;44.804;10.220;2022-08-19T12:40:40;0.25;;;0.20;;
58468;SDS011;44257;44.804;10.220;2022-08-19T12:43:07;0.05;;;0.05;;
58468;SDS011;44257;44.804;10.220;2022-08-19T12:45:33;0.10;;;0.05;;
58468;SDS011;44257;44.804;10.220;2022-08-19T12:47:59;0.10;;;0.03;;
58468;SDS011;44257;44.804;10.220;2022-08-19T12:50:25;0.00;;;0.00;;
58468;SDS011;44257;44.804;10.220;2022-08-19T12:52:51;0.10;;;0.10;;
58468;SDS011;44257;44.804;10.220;2022-08-19T12:55:17;0.10;;;0.00;;
58468;SDS011;44257;44.804;10.220;2022-08-19T12:57:44;0.10;;;0.00;;
58468;SDS011;44257;44.804;10.220;2022-08-19T13:00:15;0.28;;;0.10;;
58468;SDS011;44257;44.804;10.220;2022-08-19T13:02:44;0.10;;;0.05;;
58468;SDS011;44257;44.804;10.220;2022-08-19T13:05:14;0.00;;;0.00;;
58468;SDS011;44257;44.804;10.220;2022-08-19T13:07:46;0.00;;;0.00;;
58468;SDS011;44257;44.804;10.220;2022-08-19T13:10:13;0.00;;;0.00;;
58468;SDS011;44257;44.804;10.220;2022-08-19T13:12:42;0.55;;;0.20;;
58468;SDS011;44257;44.804;10.220;2022-08-19T13:15:09;0.10;;;0.10;;
58468;SDS011;44257;44.804;10.220;2022-08-19T13:17:36;0.13;;;0.13;;
58468;SDS011;44257;44.804;10.220;2022-08-19T13:20:03;0.13;;;0.05;;
58468;SDS011;44257;44.804;10.220;2022-08-19T13:22:32;0.28;;;0.17;;
58468;SDS011;44257;44.804;10.220;2022-08-19T13:24:58;0.82;;;0.40;;
58468;SDS011;44257;44.804;10.220;2022-08-19T13:27:24;0.10;;;0.10;;
58468;SDS011;44257;44.804;10.220;2022-08-19T13:29:50;0.10;;;0.05;;
58468;SDS011;44257;44.804;10.220;2022-08-19T13:32:35;2.85;;;0.40;;
58468;SDS011;44257;44.804;10.220;2022-08-19T13:35:19;0.08;;;0.00;;
58468;SDS011;44257;44.804;10.220;2022-08-19T13:37:45;0.10;;;0.10;;
58468;SDS011;44257;44.804;10.220;2022-08-19T13:40:16;0.10;;;0.05;;
58468;SDS011;44257;44.804;10.220;2022-08-19T13:42:44;0.20;;;0.10;;
58468;SDS011;44257;44.804;10.220;2022-08-19T13:45:13;0.80;;;0.22;;
58468;SDS011;44257;44.804;10.220;2022-08-19T13:47:40;0.77;;;0.25;;
58468;SDS011;44257;44.804;10.220;2022-08-19T13:50:11;1.40;;;0.20;;
58468;SDS011;44257;44.804;10.220;2022-08-19T13:52:39;0.25;;;0.17;;
58468;SDS011;44257;44.804;10.220;2022-08-19T13:55:05;0.20;;;0.13;;
58468;SDS011;44257;44.804;10.220;2022-08-19T13:57:32;0.30;;;0.20;;
58468;SDS011;44257;44.804;10.220;2022-08-19T13:59:58;0.10;;;0.10;;
58468;SDS011;44257;44.804;10.220;2022-08-19T14:02:25;2.45;;;0.57;;
58468;SDS011;44257;44.804;10.220;2022-08-19T14:04:51;0.25;;;0.10;;
58468;SDS011;44257;44.804;10.220;2022-08-19T14:07:17;0.50;;;0.32;;
58468;SDS011;44257;44.804;10.220;2022-08-19T14:09:44;0.50;;;0.10;;
58468;SDS011;44257;44.804;10.220;2022-08-19T14:12:10;0.13;;;0.03;;
58468;SDS011;44257;44.804;10.220;2022-08-19T14:14:38;0.10;;;0.10;;
58468;SDS011;44257;44.804;10.220;2022-08-19T14:17:07;2.40;;;0.10;;
58468;SDS011;44257;44.804;10.220;2022-08-19T14:19:34;0.80;;;0.25;;
58468;SDS011;44257;44.804;10.220;2022-08-19T14:22:01;0.65;;;0.50;;
58468;SDS011;44257;44.804;10.220;2022-08-19T14:24:27;0.52;;;0.25;;
58468;SDS011;44257;44.804;10.220;2022-08-19T14:26:53;0.28;;;0.17;;
58468;SDS011;44257;44.804;10.220;2022-08-19T14:29:19;0.28;;;0.20;;
58468;SDS011;44257;44.804;10.220;2022-08-19T14:31:45;0.25;;;0.22;;
58468;SDS011;44257;44.804;10.220;2022-08-19T14:34:11;0.35;;;0.13;;
58468;SDS011;44257;44.804;10.220;2022-08-19T14:36:38;0.57;;;0.22;;
58468;SDS011;44257;44.804;10.220;2022-08-19T14:39:04;0.10;;;0.03;;
58468;SDS011;44257;44.804;10.220;2022-08-19T14:41:30;0.55;;;0.17;;
58468;SDS011;44257;44.804;10.220;2022-08-19T14:43:56;0.20;;;0.20;;
58468;SDS011;44257;44.804;10.220;2022-08-19T14:46:24;0.47;;;0.20;;
58468;SDS011;44257;44.804;10.220;2022-08-19T14:48:52;0.57;;;0.20;;
58468;SDS011;44257;44.804;10.220;2022-08-19T14:51:19;0.10;;;0.08;;
58468;SDS011;44257;44.804;10.220;2022-08-19T14:53:48;0.20;;;0.10;;
58468;SDS011;44257;44.804;10.220;2022-08-19T14:56:16;0.35;;;0.10;;
58468;SDS011;44257;44.804;10.220;2022-08-19T14:58:44;0.13;;;0.13;;
58468;SDS011;44257;44.804;10.220;2022-08-19T15:01:11;4.90;;;0.40;;
58468;SDS011;44257;44.804;10.220;2022-08-19T15:03:37;0.93;;;0.65;;
58468;SDS011;44257;44.804;10.220;2022-08-19T15:06:05;0.45;;;0.43;;
58468;SDS011;44257;44.804;10.220;2022-08-19T15:08:32;0.10;;;0.08;;
58468;SDS011;44257;44.804;10.220;2022-08-19T15:11:01;0.20;;;0.20;;
58468;SDS011;44257;44.804;10.220;2022-08-19T15:13:28;0.10;;;0.10;;
58468;SDS011;44257;44.804;10.220;2022-08-19T15:15:55;0.38;;;0.15;;
58468;SDS011;44257;44.804;10.220;2022-08-19T15:18:22;0.77;;;0.20;;
58468;SDS011;44257;44.804;10.220;2022-08-19T15:20:49;0.00;;;0.00;;
58468;SDS011;44257;44.804;10.220;2022-08-19T15:23:15;0.52;;;0.30;;
58468;SDS011;44257;44.804;10.220;2022-08-19T15:25:43;0.10;;;0.10;;
58468;SDS011;44257;44.804;10.220;2022-08-19T15:28:09;0.20;;;0.20;;
58468;SDS011;44257;44.804;10.220;2022-08-19T15:30:36;1.13;;;0.17;;
58468;SDS011;44257;44.804;10.220;2022-08-19T15:33:03;0.38;;;0.20;;
58468;SDS011;44257;44.804;10.220;2022-08-19T15:35:29;0.47;;;0.30;;
58468;SDS011;44257;44.804;10.220;2022-08-19T15:37:55;0.30;;;0.20;;
58468;SDS011;44257;44.804;10.220;2022-08-19T15:40:23;0.17;;;0.17;;
58468;SDS011;44257;44.804;10.220;2022-08-19T15:42:51;0.75;;;0.35;;
58468;SDS011;44257;44.804;10.220;2022-08-19T15:45:19;0.55;;;0.30;;
58468;SDS011;44257;44.804;10.220;2022-08-19T15:47:46;0.98;;;0.17;;
58468;SDS011;44257;44.804;10.220;2022-08-19T15:50:18;0.35;;;0.30;;
58468;SDS011;44257;44.804;10.220;2022-08-19T15:55:19;0.32;;;0.20;;
58468;SDS011;44257;44.804;10.220;2022-08-19T15:57:47;0.52;;;0.30;;
58468;SDS011;44257;44.804;10.220;2022-08-19T16:00:31;0.25;;;0.17;;
58468;SDS011;44257;44.804;10.220;2022-08-19T16:03:18;0.20;;;0.20;;
58468;SDS011;44257;44.804;10.220;2022-08-19T16:06:04;0.47;;;0.22;;
58468;SDS011;44257;44.804;10.220;2022-08-19T16:08:49;0.75;;;0.45;;
58468;SDS011;44257;44.804;10.220;2022-08-19T16:11:16;1.55;;;0.32;;
58468;SDS011;44257;44.804;10.220;2022-08-19T16:13:47;0.52;;;0.50;;
58468;SDS011;44257;44.804;10.220;2022-08-19T16:16:20;0.43;;;0.20;;
58468;SDS011;44257;44.804;10.220;2022-08-19T16:18:49;0.60;;;0.47;;
58468;SDS011;44257;44.804;10.220;2022-08-19T16:21:18;0.28;;;0.28;;
58468;SDS011;44257;44.804;10.220;2022-08-19T16:23:45;0.75;;;0.30;;
58468;SDS011;44257;44.804;10.220;2022-08-19T16:26:13;0.20;;;0.20;;
58468;SDS011;44257;44.804;10.220;2022-08-19T16:28:41;0.57;;;0.30;;
58468;SDS011;44257;44.804;10.220;2022-08-19T16:31:09;0.20;;;0.20;;
58468;SDS011;44257;44.804;10.220;2022-08-19T16:33:36;0.35;;;0.22;;
58468;SDS011;44257;44.804;10.220;2022-08-19T16:36:02;0.38;;;0.32;;
58468;SDS011;44257;44.804;10.220;2022-08-19T16:38:28;1.38;;;0.30;;
58468;SDS011;44257;44.804;10.220;2022-08-19T16:40:54;0.47;;;0.20;;
58468;SDS011;44257;44.804;10.220;2022-08-19T16:43:21;1.05;;;0.20;;
58468;SDS011;44257;44.804;10.220;2022-08-19T16:45:48;0.30;;;0.30;;
58468;SDS011;44257;44.804;10.220;2022-08-19T16:48:20;0.40;;;0.30;;
58468;SDS011;44257;44.804;10.220;2022-08-19T16:50:49;0.30;;;0.20;;
58468;SDS011;44257;44.804;10.220;2022-08-19T16:53:16;0.65;;;0.28;;
58468;SDS011;44257;44.804;10.220;2022-08-19T16:55:47;1.25;;;0.50;;
58468;SDS011;44257;44.804;10.220;2022-08-19T16:58:19;1.27;;;0.60;;
58468;SDS011;44257;44.804;10.220;2022-08-19T17:00:46;0.52;;;0.43;;
58468;SDS011;44257;44.804;10.220;2022-08-19T17:03:17;0.50;;;0.30;;
58468;SDS011;44257;44.804;10.220;2022-08-19T17:05:47;0.47;;;0.47;;
58468;SDS011;44257;44.804;10.220;2022-08-19T17:08:16;3.65;;;0.50;;
58468;SDS011;44257;44.804;10.220;2022-08-19T17:10:43;0.70;;;0.40;;
58468;SDS011;44257;44.804;10.220;2022-08-19T17:13:11;0.40;;;0.30;;
58468;SDS011;44257;44.804;10.220;2022-08-19T17:15:41;0.15;;;0.10;;
58468;SDS011;44257;44.804;10.220;2022-08-19T17:18:08;0.68;;;0.47;;
58468;SDS011;44257;44.804;10.220;2022-08-19T17:20:36;2.25;;;0.70;;
58468;SDS011;44257;44.804;10.220;2022-08-19T17:23:03;0.88;;;0.40;;
58468;SDS011;44257;44.804;10.220;2022-08-19T17:25:30;0.63;;;0.55;;
58468;SDS011;44257;44.804;10.220;2022-08-19T17:27:56;0.77;;;0.40;;
58468;SDS011;44257;44.804;10.220;2022-08-19T17:30:30;0.52;;;0.30;;
58468;SDS011;44257;44.804;10.220;2022-08-19T17:32:56;1.85;;;0.50;;
58468;SDS011;44257;44.804;10.220;2022-08-19T17:35:22;0.35;;;0.30;;
58468;SDS011;44257;44.804;10.220;2022-08-19T17:37:48;0.95;;;0.45;;
58468;SDS011;44257;44.804;10.220;2022-08-19T17:40:16;0.50;;;0.22;;
58468;SDS011;44257;44.804;10.220;2022-08-19T17:42:42;0.73;;;0.50;;
58468;SDS011;44257;44.804;10.220;2022-08-19T17:45:10;1.10;;;0.50;;
58468;SDS011;44257;44.804;10.220;2022-08-19T17:47:37;0.60;;;0.32;;
58468;SDS011;44257;44.804;10.220;2022-08-19T17:50:06;0.65;;;0.43;;
58468;SDS011;44257;44.804;10.220;2022-08-19T17:52:34;1.20;;;0.63;;
58468;SDS011;44257;44.804;10.220;2022-08-19T17:55:02;0.60;;;0.47;;
58468;SDS011;44257;44.804;10.220;2022-08-19T17:57:28;0.70;;;0.40;;
58468;SDS011;44257;44.804;10.220;2022-08-19T17:59:54;1.55;;;0.30;;
58468;SDS011;44257;44.804;10.220;2022-08-19T18:02:20;1.05;;;0.52;;
58468;SDS011;44257;44.804;10.220;2022-08-19T18:04:46;1.15;;;0.55;;
58468;SDS011;44257;44.804;10.220;2022-08-19T18:07:13;0.65;;;0.43;;
58468;SDS011;44257;44.804;10.220;2022-08-19T18:09:42;0.80;;;0.50;;
58468;SDS011;44257;44.804;10.220;2022-08-19T18:12:10;1.27;;;0.57;;
58468;SDS011;44257;44.804;10.220;2022-08-19T18:14:38;1.50;;;0.70;;
58468;SDS011;44257;44.804;10.220;2022-08-19T18:17:05;0.93;;;0.45;;
58468;SDS011;44257;44.804;10.220;2022-08-19T18:19:38;1.65;;;0.20;;
58468;SDS011;44257;44.804;10.220;2022-08-19T18:22:05;0.95;;;0.57;;
58468;SDS011;44257;44.804;10.220;2022-08-19T18:24:31;0.43;;;0.30;;
58468;SDS011;44257;44.804;10.220;2022-08-19T18:26:57;0.65;;;0.40;;
58468;SDS011;44257;44.804;10.220;2022-08-19T18:29:23;0.50;;;0.32;;
58468;SDS011;44257;44.804;10.220;2022-08-19T18:31:49;0.45;;;0.30;;
58468;SDS011;44257;44.804;10.220;2022-08-19T18:34:15;1.05;;;0.63;;